sensor_id;sensor_type;location;lat;lon;timestamp;pressure;altitude;pressure_sealevel;temperature;humidity
72677;BME280;60755;51.374;10.662;2024-01-30T00:00:15;98453.56;;;5.55;78.06
72677;BME280;60755;51.374;10.662;2024-01-30T00:02:42;98456.41;;;5.37;78.06
72677;BME280;60755;51.374;10.662;2024-01-30T00:05:10;98454.38;;;5.55;77.43
72677;BME280;60755;51.374;10.662;2024-01-30T00:07:37;98456.97;;;5.55;77.61
72677;BME280;60755;51.374;10.662;2024-01-30T00:10:05;98451.59;;;5.57;77.52
72677;BME280;60755;51.374;10.662;2024-01-30T00:12:32;98457.66;;;5.49;78.04
72677;BME280;60755;51.374;10.662;2024-01-30T00:14:59;98453.72;;;5.53;77.95
72677;BME280;60755;51.374;10.662;2024-01-30T00:17:26;98464.28;;;5.60;77.39
72677;BME280;60755;51.374;10.662;2024-01-30T00:19:53;98462.16;;;5.64;77.85
72677;BME280;60755;51.374;10.662;2024-01-30T00:22:21;98458.16;;;5.76;77.80
72677;BME280;60755;51.374;10.662;2024-01-30T00:24:48;98453.28;;;5.73;77.60
72677;BME280;60755;51.374;10.662;2024-01-30T00:27:15;98453.69;;;5.61;77.62
72677;BME280;60755;51.374;10.662;2024-01-30T00:29:42;98448.00;;;5.58;77.25
72677;BME280;60755;51.374;10.662;2024-01-30T00:32:09;98455.56;;;5.45;78.03
72677;BME280;60755;51.374;10.662;2024-01-30T00:34:36;98457.13;;;5.31;78.89
72677;BME280;60755;51.374;10.662;2024-01-30T00:37:03;98442.44;;;5.38;78.70
72677;BME280;60755;51.374;10.662;2024-01-30T00:39:32;98452.19;;;5.36;78.36
72677;BME280;60755;51.374;10.662;2024-01-30T00:41:59;98443.09;;;5.32;78.88
72677;BME280;60755;51.374;10.662;2024-01-30T00:44:26;98440.94;;;5.36;79.15
72677;BME280;60755;51.374;10.662;2024-01-30T00:46:53;98443.72;;;5.34;79.10
72677;BME280;60755;51.374;10.662;2024-01-30T00:49:20;98442.94;;;5.33;79.05
72677;BME280;60755;51.374;10.662;2024-01-30T00:51:47;98434.78;;;5.28;79.23
72677;BME280;60755;51.374;10.662;2024-01-30T00:54:14;98435.31;;;5.24;79.25
72677;BME280;60755;51.374;10.662;2024-01-30T00:56:42;98436.59;;;5.28;79.33
72677;BME280;60755;51.374;10.662;2024-01-30T00:59:09;98437.25;;;5.30;79.43
72677;BME280;60755;51.374;10.662;2024-01-30T01:01:36;98433.66;;;5.31;79.21
72677;BME280;60755;51.374;10.662;2024-01-30T01:04:03;98438.88;;;5.31;78.61
72677;BME280;60755;51.374;10.662;2024-01-30T01:06:30;98441.94;;;5.34;78.15
72677;BME280;60755;51.374;10.662;2024-01-30T01:08:57;98439.34;;;5.34;78.84
72677;BME280;60755;51.374;10.662;2024-01-30T01:11:24;98437.03;;;5.40;78.88
72677;BME280;60755;51.374;10.662;2024-01-30T01:13:52;98432.16;;;5.37;78.72
72677;BME280;60755;51.374;10.662;2024-01-30T01:16:19;98434.94;;;5.35;78.99
72677;BME280;60755;51.374;10.662;2024-01-30T01:18:46;98436.72;;;5.34;78.92
72677;BME280;60755;51.374;10.662;2024-01-30T01:21:13;98438.22;;;5.29;78.94
72677;BME280;60755;51.374;10.662;2024-01-30T01:23:40;98428.44;;;5.31;78.80
72677;BME280;60755;51.374;10.662;2024-01-30T01:26:07;98426.44;;;5.10;79.54
72677;BME280;60755;51.374;10.662;2024-01-30T01:28:35;98428.25;;;5.01;80.90
72677;BME280;60755;51.374;10.662;2024-01-30T01:31:03;98424.31;;;5.14;80.21
72677;BME280;60755;51.374;10.662;2024-01-30T01:33:31;98425.28;;;5.13;78.71
72677;BME280;60755;51.374;10.662;2024-01-30T01:35:59;98432.00;;;5.07;78.67
72677;BME280;60755;51.374;10.662;2024-01-30T01:38:28;98430.56;;;4.96;78.79
72677;BME280;60755;51.374;10.662;2024-01-30T01:40:55;98432.53;;;4.94;79.16
72677;BME280;60755;51.374;10.662;2024-01-30T01:43:22;98425.38;;;4.88;79.40
72677;BME280;60755;51.374;10.662;2024-01-30T01:45:49;98425.09;;;4.83;79.91
72677;BME280;60755;51.374;10.662;2024-01-30T01:48:17;98423.94;;;4.86;80.87
72677;BME280;60755;51.374;10.662;2024-01-30T01:50:44;98428.84;;;5.12;80.75
72677;BME280;60755;51.374;10.662;2024-01-30T01:53:12;98429.34;;;5.15;80.09
72677;BME280;60755;51.374;10.662;2024-01-30T01:55:39;98426.88;;;5.22;79.82
72677;BME280;60755;51.374;10.662;2024-01-30T01:58:07;98426.22;;;5.20;79.82
72677;BME280;60755;51.374;10.662;2024-01-30T02:00:35;98420.16;;;5.27;80.03
72677;BME280;60755;51.374;10.662;2024-01-30T02:03:05;98418.63;;;5.41;80.37
72677;BME280;60755;51.374;10.662;2024-01-30T02:05:35;98419.41;;;5.42;79.84
72677;BME280;60755;51.374;10.662;2024-01-30T02:08:03;98419.47;;;5.33;79.58
72677;BME280;60755;51.374;10.662;2024-01-30T02:10:30;98419.88;;;5.45;79.15
72677;BME280;60755;51.374;10.662;2024-01-30T02:12:57;98417.44;;;5.44;78.92
72677;BME280;60755;51.374;10.662;2024-01-30T02:15:24;98416.41;;;5.30;78.72
72677;BME280;60755;51.374;10.662;2024-01-30T02:17:51;98415.06;;;5.34;79.04
72677;BME280;60755;51.374;10.662;2024-01-30T02:20:18;98417.00;;;5.40;79.02
72677;BME280;60755;51.374;10.662;2024-01-30T02:22:48;98411.78;;;5.40;79.21
72677;BME280;60755;51.374;10.662;2024-01-30T02:25:15;98410.44;;;5.44;78.80
72677;BME280;60755;51.374;10.662;2024-01-30T02:27:42;98405.28;;;5.36;78.92
72677;BME280;60755;51.374;10.662;2024-01-30T02:30:10;98417.66;;;5.34;79.96
72677;BME280;60755;51.374;10.662;2024-01-30T02:32:37;98418.97;;;5.38;79.35
72677;BME280;60755;51.374;10.662;2024-01-30T02:35:05;98416.00;;;5.41;79.22
72677;BME280;60755;51.374;10.662;2024-01-30T02:37:31;98408.63;;;5.45;79.02
72677;BME280;60755;51.374;10.662;2024-01-30T02:40:00;98404.00;;;5.32;78.80
72677;BME280;60755;51.374;10.662;2024-01-30T02:42:27;98403.03;;;5.33;79.12
72677;BME280;60755;51.374;10.662;2024-01-30T02:44:54;98409.03;;;5.33;79.48
72677;BME280;60755;51.374;10.662;2024-01-30T02:47:21;98400.53;;;5.40;79.13
72677;BME280;60755;51.374;10.662;2024-01-30T02:49:47;98396.41;;;5.45;78.69
72677;BME280;60755;51.374;10.662;2024-01-30T02:52:14;98397.41;;;5.44;78.66
72677;BME280;60755;51.374;10.662;2024-01-30T02:54:41;98395.47;;;5.46;78.87
72677;BME280;60755;51.374;10.662;2024-01-30T02:57:10;98385.59;;;5.56;78.76
72677;BME280;60755;51.374;10.662;2024-01-30T02:59:38;98395.47;;;5.46;78.58
72677;BME280;60755;51.374;10.662;2024-01-30T03:02:05;98394.91;;;5.74;77.83
72677;BME280;60755;51.374;10.662;2024-01-30T03:04:32;98393.84;;;5.91;78.02
72677;BME280;60755;51.374;10.662;2024-01-30T03:06:59;98397.66;;;6.03;76.94
72677;BME280;60755;51.374;10.662;2024-01-30T03:09:26;98394.78;;;5.90;76.52
72677;BME280;60755;51.374;10.662;2024-01-30T03:11:52;98391.88;;;5.70;76.67
72677;BME280;60755;51.374;10.662;2024-01-30T03:14:21;98394.78;;;5.44;77.66
72677;BME280;60755;51.374;10.662;2024-01-30T03:16:48;98387.34;;;5.41;77.38
72677;BME280;60755;51.374;10.662;2024-01-30T03:19:15;98394.34;;;5.41;78.14
72677;BME280;60755;51.374;10.662;2024-01-30T03:21:42;98391.38;;;5.44;77.98
72677;BME280;60755;51.374;10.662;2024-01-30T03:24:09;98384.63;;;5.57;78.43
72677;BME280;60755;51.374;10.662;2024-01-30T03:26:36;98382.63;;;5.59;78.00
72677;BME280;60755;51.374;10.662;2024-01-30T03:29:03;98383.38;;;5.68;77.65
72677;BME280;60755;51.374;10.662;2024-01-30T03:31:31;98378.66;;;5.72;77.61
72677;BME280;60755;51.374;10.662;2024-01-30T03:33:58;98377.69;;;5.87;77.19
72677;BME280;60755;51.374;10.662;2024-01-30T03:36:25;98376.72;;;5.88;77.03
72677;BME280;60755;51.374;10.662;2024-01-30T03:38:52;98368.56;;;5.92;76.66
72677;BME280;60755;51.374;10.662;2024-01-30T03:41:19;98371.97;;;5.92;76.24
72677;BME280;60755;51.374;10.662;2024-01-30T03:43:46;98373.25;;;5.96;75.92
72677;BME280;60755;51.374;10.662;2024-01-30T03:46:13;98369.03;;;5.95;76.09
72677;BME280;60755;51.374;10.662;2024-01-30T03:48:42;98373.50;;;6.01;76.10
72677;BME280;60755;51.374;10.662;2024-01-30T03:51:09;98365.97;;;6.06;75.85
72677;BME280;60755;51.374;10.662;2024-01-30T03:53:40;98364.84;;;5.86;75.54
72677;BME280;60755;51.374;10.662;2024-01-30T03:56:07;98371.59;;;5.57;76.40
72677;BME280;60755;51.374;10.662;2024-01-30T03:58:34;98368.78;;;5.36;77.62
72677;BME280;60755;51.374;10.662;2024-01-30T04:01:01;98368.50;;;5.31;78.74
72677;BME280;60755;51.374;10.662;2024-01-30T04:03:28;98367.97;;;5.36;77.65
72677;BME280;60755;51.374;10.662;2024-01-30T04:05:56;98364.56;;;5.35;78.43
72677;BME280;60755;51.374;10.662;2024-01-30T04:08:23;98371.13;;;5.31;78.46
72677;BME280;60755;51.374;10.662;2024-01-30T04:10:50;98365.28;;;5.21;78.27
72677;BME280;60755;51.374;10.662;2024-01-30T04:13:17;98371.34;;;5.44;78.39
72677;BME280;60755;51.374;10.662;2024-01-30T04:15:44;98358.16;;;5.46;77.91
72677;BME280;60755;51.374;10.662;2024-01-30T04:18:10;98359.13;;;5.45;77.92
72677;BME280;60755;51.374;10.662;2024-01-30T04:20:38;98360.78;;;5.60;78.01
72677;BME280;60755;51.374;10.662;2024-01-30T04:23:06;98364.38;;;5.59;77.39
72677;BME280;60755;51.374;10.662;2024-01-30T04:25:33;98364.63;;;5.50;77.20
72677;BME280;60755;51.374;10.662;2024-01-30T04:28:00;98357.44;;;5.52;77.00
72677;BME280;60755;51.374;10.662;2024-01-30T04:30:27;98356.56;;;5.59;77.41
72677;BME280;60755;51.374;10.662;2024-01-30T04:32:53;98361.50;;;5.54;76.69
72677;BME280;60755;51.374;10.662;2024-01-30T04:35:21;98363.38;;;5.46;76.88
72677;BME280;60755;51.374;10.662;2024-01-30T04:37:51;98356.50;;;5.45;77.38
72677;BME280;60755;51.374;10.662;2024-01-30T04:40:20;98356.97;;;5.48;77.18
72677;BME280;60755;51.374;10.662;2024-01-30T04:42:47;98354.78;;;5.37;77.68
72677;BME280;60755;51.374;10.662;2024-01-30T04:45:14;98352.22;;;5.29;77.58
72677;BME280;60755;51.374;10.662;2024-01-30T04:47:41;98352.75;;;5.24;77.42
72677;BME280;60755;51.374;10.662;2024-01-30T04:50:09;98361.94;;;5.12;77.96
72677;BME280;60755;51.374;10.662;2024-01-30T04:52:36;98344.28;;;4.99;78.66
72677;BME280;60755;51.374;10.662;2024-01-30T04:55:03;98352.13;;;4.91;78.83
72677;BME280;60755;51.374;10.662;2024-01-30T04:57:32;98346.78;;;4.85;79.06
72677;BME280;60755;51.374;10.662;2024-01-30T04:59:59;98345.00;;;4.85;79.32
72677;BME280;60755;51.374;10.662;2024-01-30T05:02:27;98350.34;;;4.92;78.41
72677;BME280;60755;51.374;10.662;2024-01-30T05:04:54;98354.69;;;4.99;78.16
72677;BME280;60755;51.374;10.662;2024-01-30T05:07:21;98344.91;;;5.01;77.94
72677;BME280;60755;51.374;10.662;2024-01-30T05:09:48;98345.53;;;5.03;77.97
72677;BME280;60755;51.374;10.662;2024-01-30T05:12:15;98349.75;;;5.04;78.33
72677;BME280;60755;51.374;10.662;2024-01-30T05:14:43;98351.75;;;5.02;77.92
72677;BME280;60755;51.374;10.662;2024-01-30T05:17:10;98353.34;;;5.03;77.79
72677;BME280;60755;51.374;10.662;2024-01-30T05:19:38;98360.09;;;4.98;78.03
72677;BME280;60755;51.374;10.662;2024-01-30T05:22:05;98357.16;;;4.93;77.79
72677;BME280;60755;51.374;10.662;2024-01-30T05:24:33;98356.72;;;4.81;77.60
72677;BME280;60755;51.374;10.662;2024-01-30T05:27:00;98370.09;;;4.78;78.72
72677;BME280;60755;51.374;10.662;2024-01-30T05:29:27;98364.06;;;4.77;78.56
72677;BME280;60755;51.374;10.662;2024-01-30T05:31:55;98363.63;;;4.74;78.96
72677;BME280;60755;51.374;10.662;2024-01-30T05:34:22;98364.25;;;4.76;78.87
72677;BME280;60755;51.374;10.662;2024-01-30T05:36:49;98366.84;;;4.76;79.20
72677;BME280;60755;51.374;10.662;2024-01-30T05:39:16;98362.84;;;4.65;79.58
72677;BME280;60755;51.374;10.662;2024-01-30T05:41:43;98366.25;;;4.66;79.04
72677;BME280;60755;51.374;10.662;2024-01-30T05:44:10;98363.75;;;4.72;78.86
72677;BME280;60755;51.374;10.662;2024-01-30T05:46:37;98367.03;;;4.74;78.85
72677;BME280;60755;51.374;10.662;2024-01-30T05:49:05;98367.78;;;4.83;78.94
72677;BME280;60755;51.374;10.662;2024-01-30T05:51:32;98367.00;;;4.83;78.33
72677;BME280;60755;51.374;10.662;2024-01-30T05:53:59;98360.63;;;4.85;78.36
72677;BME280;60755;51.374;10.662;2024-01-30T05:56:29;98361.06;;;4.89;78.21
72677;BME280;60755;51.374;10.662;2024-01-30T05:58:55;98368.44;;;4.85;78.49
72677;BME280;60755;51.374;10.662;2024-01-30T06:01:22;98363.22;;;4.85;78.54
72677;BME280;60755;51.374;10.662;2024-01-30T06:03:49;98362.91;;;4.80;78.34
72677;BME280;60755;51.374;10.662;2024-01-30T06:06:18;98365.81;;;4.85;78.05
72677;BME280;60755;51.374;10.662;2024-01-30T06:08:45;98362.41;;;4.85;77.33
72677;BME280;60755;51.374;10.662;2024-01-30T06:11:11;98362.72;;;4.90;77.96
72677;BME280;60755;51.374;10.662;2024-01-30T06:13:38;98362.19;;;4.94;77.86
72677;BME280;60755;51.374;10.662;2024-01-30T06:16:09;98361.94;;;4.81;78.03
72677;BME280;60755;51.374;10.662;2024-01-30T06:18:36;98359.03;;;4.76;78.09
72677;BME280;60755;51.374;10.662;2024-01-30T06:21:04;98365.91;;;4.69;78.20
72677;BME280;60755;51.374;10.662;2024-01-30T06:23:32;98359.72;;;4.70;78.41
72677;BME280;60755;51.374;10.662;2024-01-30T06:25:59;98360.03;;;4.75;78.63
72677;BME280;60755;51.374;10.662;2024-01-30T06:28:26;98352.50;;;4.80;78.13
72677;BME280;60755;51.374;10.662;2024-01-30T06:30:53;98357.78;;;4.95;78.75
72677;BME280;60755;51.374;10.662;2024-01-30T06:33:20;98355.19;;;4.95;77.16
72677;BME280;60755;51.374;10.662;2024-01-30T06:35:47;98348.50;;;5.00;77.67
72677;BME280;60755;51.374;10.662;2024-01-30T06:38:14;98353.84;;;5.07;77.52
72677;BME280;60755;51.374;10.662;2024-01-30T06:40:43;98355.91;;;5.12;77.51
72677;BME280;60755;51.374;10.662;2024-01-30T06:43:10;98347.78;;;5.15;77.29
72677;BME280;60755;51.374;10.662;2024-01-30T06:45:36;98352.13;;;5.22;77.12
72677;BME280;60755;51.374;10.662;2024-01-30T06:48:04;98358.94;;;5.23;76.95
72677;BME280;60755;51.374;10.662;2024-01-30T06:50:31;98355.47;;;5.08;76.86
72677;BME280;60755;51.374;10.662;2024-01-30T06:52:59;98348.41;;;5.17;77.52
72677;BME280;60755;51.374;10.662;2024-01-30T06:55:25;98360.88;;;4.98;77.24
72677;BME280;60755;51.374;10.662;2024-01-30T06:57:54;98353.03;;;5.07;77.12
72677;BME280;60755;51.374;10.662;2024-01-30T07:00:21;98353.72;;;5.00;77.55
72677;BME280;60755;51.374;10.662;2024-01-30T07:02:48;98352.22;;;5.06;77.53
72677;BME280;60755;51.374;10.662;2024-01-30T07:05:15;98359.00;;;5.15;77.52
72677;BME280;60755;51.374;10.662;2024-01-30T07:07:43;98351.94;;;5.24;77.25
72677;BME280;60755;51.374;10.662;2024-01-30T07:10:10;98354.41;;;5.17;77.12
72677;BME280;60755;51.374;10.662;2024-01-30T07:12:37;98361.03;;;5.28;77.01
72677;BME280;60755;51.374;10.662;2024-01-30T07:15:06;98353.16;;;5.36;77.17
72677;BME280;60755;51.374;10.662;2024-01-30T07:17:34;98353.69;;;5.54;76.12
72677;BME280;60755;51.374;10.662;2024-01-30T07:20:02;98359.59;;;5.48;75.55
72677;BME280;60755;51.374;10.662;2024-01-30T07:22:30;98356.19;;;5.48;75.18
72677;BME280;60755;51.374;10.662;2024-01-30T07:24:57;98357.78;;;5.72;74.68
72677;BME280;60755;51.374;10.662;2024-01-30T07:27:25;98364.91;;;5.78;74.82
72677;BME280;60755;51.374;10.662;2024-01-30T07:29:52;98361.56;;;5.84;74.21
72677;BME280;60755;51.374;10.662;2024-01-30T07:32:20;98358.84;;;6.00;73.87
72677;BME280;60755;51.374;10.662;2024-01-30T07:34:48;98358.78;;;6.08;74.27
72677;BME280;60755;51.374;10.662;2024-01-30T07:37:15;98354.84;;;6.12;73.71
72677;BME280;60755;51.374;10.662;2024-01-30T07:39:42;98357.66;;;6.26;73.79
72677;BME280;60755;51.374;10.662;2024-01-30T07:42:09;98355.84;;;6.26;72.81
72677;BME280;60755;51.374;10.662;2024-01-30T07:44:37;98363.03;;;6.39;72.57
72677;BME280;60755;51.374;10.662;2024-01-30T07:47:04;98360.06;;;6.57;72.54
72677;BME280;60755;51.374;10.662;2024-01-30T07:49:34;98354.69;;;6.58;71.91
72677;BME280;60755;51.374;10.662;2024-01-30T07:52:01;98351.88;;;6.75;72.25
72677;BME280;60755;51.374;10.662;2024-01-30T07:54:31;98351.38;;;6.86;71.37
72677;BME280;60755;51.374;10.662;2024-01-30T07:56:59;98352.66;;;6.90;71.22
72677;BME280;60755;51.374;10.662;2024-01-30T07:59:26;98351.22;;;7.23;70.13
72677;BME280;60755;51.374;10.662;2024-01-30T08:01:54;98353.00;;;6.87;71.44
72677;BME280;60755;51.374;10.662;2024-01-30T08:04:21;98355.69;;;7.29;70.93
72677;BME280;60755;51.374;10.662;2024-01-30T08:06:50;98352.81;;;7.24;71.29
72677;BME280;60755;51.374;10.662;2024-01-30T08:09:17;98352.41;;;7.42;70.33
72677;BME280;60755;51.374;10.662;2024-01-30T08:11:44;98355.94;;;7.56;69.16
72677;BME280;60755;51.374;10.662;2024-01-30T08:14:11;98359.19;;;7.79;69.48
72677;BME280;60755;51.374;10.662;2024-01-30T08:16:39;98351.13;;;7.81;68.76
72677;BME280;60755;51.374;10.662;2024-01-30T08:19:07;98357.56;;;7.78;69.03
72677;BME280;60755;51.374;10.662;2024-01-30T08:21:34;98350.41;;;7.94;67.92
72677;BME280;60755;51.374;10.662;2024-01-30T08:24:05;98347.38;;;7.90;67.20
72677;BME280;60755;51.374;10.662;2024-01-30T08:26:33;98351.94;;;7.81;68.17
72677;BME280;60755;51.374;10.662;2024-01-30T08:29:01;98348.97;;;8.12;68.39
72677;BME280;60755;51.374;10.662;2024-01-30T08:31:28;98346.38;;;8.19;68.30
72677;BME280;60755;51.374;10.662;2024-01-30T08:33:55;98347.19;;;8.48;68.37
72677;BME280;60755;51.374;10.662;2024-01-30T08:36:23;98349.00;;;8.47;67.00
72677;BME280;60755;51.374;10.662;2024-01-30T08:38:50;98344.56;;;8.48;67.39
72677;BME280;60755;51.374;10.662;2024-01-30T08:41:18;98344.13;;;8.85;66.01
72677;BME280;60755;51.374;10.662;2024-01-30T08:43:46;98342.13;;;8.87;67.19
72677;BME280;60755;51.374;10.662;2024-01-30T08:46:13;98341.34;;;8.93;65.40
72677;BME280;60755;51.374;10.662;2024-01-30T08:48:44;98348.25;;;9.08;66.21
72677;BME280;60755;51.374;10.662;2024-01-30T08:51:11;98342.63;;;9.17;65.51
72677;BME280;60755;51.374;10.662;2024-01-30T08:53:39;98348.09;;;9.29;65.63
72677;BME280;60755;51.374;10.662;2024-01-30T08:56:06;98348.44;;;9.00;66.14
72677;BME280;60755;51.374;10.662;2024-01-30T08:58:35;98344.28;;;9.45;64.94
72677;BME280;60755;51.374;10.662;2024-01-30T09:01:03;98346.72;;;9.40;65.20
72677;BME280;60755;51.374;10.662;2024-01-30T09:03:31;98350.25;;;8.99;66.39
72677;BME280;60755;51.374;10.662;2024-01-30T09:05:58;98349.72;;;9.43;65.42
72677;BME280;60755;51.374;10.662;2024-01-30T09:08:26;98350.16;;;9.67;65.27
72677;BME280;60755;51.374;10.662;2024-01-30T09:10:53;98341.47;;;9.86;63.93
72677;BME280;60755;51.374;10.662;2024-01-30T09:13:20;98347.94;;;9.84;64.24
72677;BME280;60755;51.374;10.662;2024-01-30T09:15:49;98337.66;;;9.56;65.13
72677;BME280;60755;51.374;10.662;2024-01-30T09:18:16;98347.53;;;9.53;65.59
72677;BME280;60755;51.374;10.662;2024-01-30T09:20:43;98347.94;;;9.77;64.87
72677;BME280;60755;51.374;10.662;2024-01-30T09:23:11;98354.00;;;9.84;64.27
72677;BME280;60755;51.374;10.662;2024-01-30T09:25:38;98350.38;;;9.85;64.49
72677;BME280;60755;51.374;10.662;2024-01-30T09:28:06;98347.94;;;10.36;61.91
72677;BME280;60755;51.374;10.662;2024-01-30T09:30:33;98345.53;;;9.89;65.27
72677;BME280;60755;51.374;10.662;2024-01-30T09:33:02;98348.72;;;10.44;62.96
72677;BME280;60755;51.374;10.662;2024-01-30T09:35:29;98350.75;;;10.42;63.01
72677;BME280;60755;51.374;10.662;2024-01-30T09:37:57;98360.41;;;10.61;62.63
72677;BME280;60755;51.374;10.662;2024-01-30T09:40:25;98359.53;;;10.74;61.79
72677;BME280;60755;51.374;10.662;2024-01-30T09:42:53;98356.81;;;10.42;63.71
72677;BME280;60755;51.374;10.662;2024-01-30T09:45:24;98359.38;;;10.69;62.96
72677;BME280;60755;51.374;10.662;2024-01-30T09:47:52;98357.81;;;10.48;63.22
72677;BME280;60755;51.374;10.662;2024-01-30T09:50:21;98356.09;;;10.80;62.00
72677;BME280;60755;51.374;10.662;2024-01-30T09:52:49;98362.72;;;10.89;60.74
72677;BME280;60755;51.374;10.662;2024-01-30T09:55:18;98357.78;;;11.12;60.64
72677;BME280;60755;51.374;10.662;2024-01-30T09:57:45;98355.59;;;11.41;59.33
72677;BME280;60755;51.374;10.662;2024-01-30T10:00:13;98364.66;;;11.07;61.52
72677;BME280;60755;51.374;10.662;2024-01-30T10:02:41;98368.69;;;11.16;60.33
72677;BME280;60755;51.374;10.662;2024-01-30T10:05:08;98367.72;;;11.48;59.61
72677;BME280;60755;51.374;10.662;2024-01-30T10:07:37;98367.22;;;11.58;58.50
72677;BME280;60755;51.374;10.662;2024-01-30T10:10:05;98360.63;;;11.49;59.29
72677;BME280;60755;51.374;10.662;2024-01-30T10:12:32;98364.00;;;11.56;58.71
72677;BME280;60755;51.374;10.662;2024-01-30T10:15:00;98352.97;;;11.72;58.84
72677;BME280;60755;51.374;10.662;2024-01-30T10:17:27;98354.16;;;11.70;59.11
72677;BME280;60755;51.374;10.662;2024-01-30T10:19:54;98354.06;;;11.27;62.09
72677;BME280;60755;51.374;10.662;2024-01-30T10:22:22;98361.78;;;11.53;60.77
72677;BME280;60755;51.374;10.662;2024-01-30T10:24:51;98362.72;;;11.65;60.59
72677;BME280;60755;51.374;10.662;2024-01-30T10:27:24;98356.47;;;11.28;61.60
72677;BME280;60755;51.374;10.662;2024-01-30T10:29:52;98363.81;;;11.19;63.13
72677;BME280;60755;51.374;10.662;2024-01-30T10:32:20;98368.41;;;10.86;62.42
72677;BME280;60755;51.374;10.662;2024-01-30T10:34:47;98374.94;;;10.63;65.65
72677;BME280;60755;51.374;10.662;2024-01-30T10:37:15;98361.28;;;11.38;62.65
72677;BME280;60755;51.374;10.662;2024-01-30T10:39:44;98360.22;;;11.45;61.88
72677;BME280;60755;51.374;10.662;2024-01-30T10:42:14;98361.75;;;11.21;63.01
72677;BME280;60755;51.374;10.662;2024-01-30T10:44:48;98363.56;;;11.28;63.34
72677;BME280;60755;51.374;10.662;2024-01-30T10:47:21;98365.50;;;11.70;62.01
72677;BME280;60755;51.374;10.662;2024-01-30T10:49:54;98356.41;;;11.41;62.63
72677;BME280;60755;51.374;10.662;2024-01-30T10:52:23;98360.09;;;11.34;62.71
72677;BME280;60755;51.374;10.662;2024-01-30T10:54:51;98358.97;;;11.16;63.32
72677;BME280;60755;51.374;10.662;2024-01-30T10:57:23;98354.13;;;10.69;64.47
72677;BME280;60755;51.374;10.662;2024-01-30T10:59:51;98359.53;;;10.74;64.91
72677;BME280;60755;51.374;10.662;2024-01-30T11:02:20;98340.88;;;10.88;63.62
72677;BME280;60755;51.374;10.662;2024-01-30T11:04:47;98355.88;;;10.81;64.24
72677;BME280;60755;51.374;10.662;2024-01-30T11:07:15;98346.53;;;10.21;66.15
72677;BME280;60755;51.374;10.662;2024-01-30T11:09:48;98357.06;;;10.92;64.23
72677;BME280;60755;51.374;10.662;2024-01-30T11:12:18;98347.03;;;10.76;64.79
72677;BME280;60755;51.374;10.662;2024-01-30T11:14:50;98336.38;;;11.40;63.19
72677;BME280;60755;51.374;10.662;2024-01-30T11:17:17;98345.34;;;10.88;64.05
72677;BME280;60755;51.374;10.662;2024-01-30T11:19:46;98340.63;;;11.03;63.80
72677;BME280;60755;51.374;10.662;2024-01-30T11:22:13;98332.22;;;10.75;64.89
72677;BME280;60755;51.374;10.662;2024-01-30T11:24:40;98328.50;;;10.51;65.91
72677;BME280;60755;51.374;10.662;2024-01-30T11:27:09;98324.97;;;10.77;64.95
72677;BME280;60755;51.374;10.662;2024-01-30T11:29:36;98326.47;;;10.53;65.49
72677;BME280;60755;51.374;10.662;2024-01-30T11:32:05;98329.75;;;10.93;64.92
72677;BME280;60755;51.374;10.662;2024-01-30T11:34:33;98315.88;;;11.17;63.76
72677;BME280;60755;51.374;10.662;2024-01-30T11:37:03;98322.47;;;11.90;61.75
72677;BME280;60755;51.374;10.662;2024-01-30T11:39:36;98314.38;;;11.85;61.93
72677;BME280;60755;51.374;10.662;2024-01-30T11:42:05;98316.34;;;11.64;62.39
72677;BME280;60755;51.374;10.662;2024-01-30T11:44:32;98311.66;;;12.16;61.68
72677;BME280;60755;51.374;10.662;2024-01-30T11:46:59;98303.19;;;12.51;60.26
72677;BME280;60755;51.374;10.662;2024-01-30T11:49:30;98300.47;;;12.76;59.16
72677;BME280;60755;51.374;10.662;2024-01-30T11:51:57;98298.75;;;12.81;59.67
72677;BME280;60755;51.374;10.662;2024-01-30T11:54:25;98306.13;;;12.61;60.45
72677;BME280;60755;51.374;10.662;2024-01-30T11:56:52;98295.28;;;12.32;60.79
72677;BME280;60755;51.374;10.662;2024-01-30T11:59:19;98290.16;;;12.19;62.31
72677;BME280;60755;51.374;10.662;2024-01-30T12:01:47;98294.06;;;11.92;63.01
72677;BME280;60755;51.374;10.662;2024-01-30T12:04:15;98281.81;;;12.04;62.46
72677;BME280;60755;51.374;10.662;2024-01-30T12:06:43;98290.03;;;11.89;62.34
72677;BME280;60755;51.374;10.662;2024-01-30T12:09:11;98286.91;;;11.17;64.50
72677;BME280;60755;51.374;10.662;2024-01-30T12:11:45;98285.59;;;11.33;64.26
72677;BME280;60755;51.374;10.662;2024-01-30T12:14:13;98271.13;;;11.49;64.44
72677;BME280;60755;51.374;10.662;2024-01-30T12:16:41;98268.34;;;11.37;65.09
72677;BME280;60755;51.374;10.662;2024-01-30T12:19:08;98270.66;;;11.27;65.28
72677;BME280;60755;51.374;10.662;2024-01-30T12:21:37;98267.00;;;12.03;62.39
72677;BME280;60755;51.374;10.662;2024-01-30T12:24:06;98264.59;;;12.01;63.02
72677;BME280;60755;51.374;10.662;2024-01-30T12:26:34;98270.63;;;11.84;63.21
72677;BME280;60755;51.374;10.662;2024-01-30T12:29:03;98278.25;;;11.42;64.22
72677;BME280;60755;51.374;10.662;2024-01-30T12:31:32;98272.41;;;11.90;62.92
72677;BME280;60755;51.374;10.662;2024-01-30T12:34:00;98272.81;;;12.12;63.51
72677;BME280;60755;51.374;10.662;2024-01-30T12:36:28;98275.47;;;11.87;62.92
72677;BME280;60755;51.374;10.662;2024-01-30T12:38:56;98279.81;;;11.49;63.49
72677;BME280;60755;51.374;10.662;2024-01-30T12:41:25;98280.84;;;11.73;62.75
72677;BME280;60755;51.374;10.662;2024-01-30T12:43:54;98285.13;;;11.93;62.24
72677;BME280;60755;51.374;10.662;2024-01-30T12:46:25;98280.44;;;11.95;62.95
72677;BME280;60755;51.374;10.662;2024-01-30T12:48:52;98285.13;;;11.43;64.57
72677;BME280;60755;51.374;10.662;2024-01-30T12:51:20;98285.44;;;12.03;63.73
72677;BME280;60755;51.374;10.662;2024-01-30T12:53:47;98284.22;;;12.42;61.91
72677;BME280;60755;51.374;10.662;2024-01-30T12:56:15;98291.06;;;11.88;62.74
72677;BME280;60755;51.374;10.662;2024-01-30T12:58:44;98295.38;;;11.83;62.47